sensor_id;sensor_type;location;lat;lon;timestamp;P1;durP1;ratioP1;P2;durP2;ratioP2
51214;SDS011;63849;47.546;19.254;2023-02-15T00:01:54;59.33;;;37.60;;
51214;SDS011;63849;47.546;19.254;2023-02-15T00:04:21;62.15;;;39.55;;
51214;SDS011;63849;47.546;19.254;2023-02-15T00:06:48;61.88;;;37.75;;
51214;SDS011;63849;47.546;19.254;2023-02-15T00:09:14;59.85;;;36.17;;
51214;SDS011;63849;47.546;19.254;2023-02-15T00:11:40;61.20;;;37.60;;
51214;SDS011;63849;47.546;19.254;2023-02-15T00:14:19;53.90;;;32.30;;
51214;SDS011;63849;47.546;19.254;2023-02-15T00:16:47;56.33;;;33.33;;
51214;SDS011;63849;47.546;19.254;2023-02-15T00:19:14;54.97;;;32.70;;
51214;SDS011;63849;47.546;19.254;2023-02-15T00:21:44;53.75;;;33.80;;
51214;SDS011;63849;47.546;19.254;2023-02-15T00:24:12;51.15;;;31.83;;
51214;SDS011;63849;47.546;19.254;2023-02-15T00:26:40;53.10;;;32.55;;
51214;SDS011;63849;47.546;19.254;2023-02-15T00:29:06;48.92;;;30.17;;
51214;SDS011;63849;47.546;19.254;2023-02-15T00:31:33;55.08;;;32.60;;
51214;SDS011;63849;47.546;19.254;2023-02-15T00:34:03;53.63;;;31.98;;
51214;SDS011;63849;47.546;19.254;2023-02-15T00:36:30;57.42;;;34.45;;
51214;SDS011;63849;47.546;19.254;2023-02-15T00:38:56;56.20;;;31.90;;
51214;SDS011;63849;47.546;19.254;2023-02-15T00:41:22;52.50;;;31.15;;
51214;SDS011;63849;47.546;19.254;2023-02-15T00:43:48;45.70;;;28.65;;
51214;SDS011;63849;47.546;19.254;2023-02-15T00:46:13;52.13;;;29.88;;
51214;SDS011;63849;47.546;19.254;2023-02-15T00:48:39;52.38;;;29.20;;
51214;SDS011;63849;47.546;19.254;2023-02-15T00:51:05;49.55;;;30.38;;
51214;SDS011;63849;47.546;19.254;2023-02-15T00:53:31;47.70;;;27.65;;
51214;SDS011;63849;47.546;19.254;2023-02-15T00:55:57;48.03;;;28.23;;
51214;SDS011;63849;47.546;19.254;2023-02-15T00:58:23;48.15;;;29.55;;
51214;SDS011;63849;47.546;19.254;2023-02-15T01:00:49;48.55;;;29.83;;
51214;SDS011;63849;47.546;19.254;2023-02-15T01:03:16;50.97;;;29.58;;
51214;SDS011;63849;47.546;19.254;2023-02-15T01:05:43;46.13;;;29.73;;
51214;SDS011;63849;47.546;19.254;2023-02-15T01:08:09;50.33;;;28.58;;
51214;SDS011;63849;47.546;19.254;2023-02-15T01:10:35;56.08;;;29.75;;
51214;SDS011;63849;47.546;19.254;2023-02-15T01:13:01;52.70;;;30.55;;
51214;SDS011;63849;47.546;19.254;2023-02-15T01:15:27;59.53;;;32.92;;
51214;SDS011;63849;47.546;19.254;2023-02-15T01:17:53;51.75;;;30.20;;
51214;SDS011;63849;47.546;19.254;2023-02-15T01:20:21;61.17;;;33.05;;
51214;SDS011;63849;47.546;19.254;2023-02-15T01:22:48;56.28;;;32.90;;
51214;SDS011;63849;47.546;19.254;2023-02-15T01:25:18;55.17;;;31.23;;
51214;SDS011;63849;47.546;19.254;2023-02-15T01:27:46;47.58;;;28.42;;
51214;SDS011;63849;47.546;19.254;2023-02-15T01:30:12;50.67;;;28.90;;
51214;SDS011;63849;47.546;19.254;2023-02-15T01:32:38;50.22;;;28.75;;
51214;SDS011;63849;47.546;19.254;2023-02-15T01:35:04;47.75;;;28.42;;
51214;SDS011;63849;47.546;19.254;2023-02-15T01:37:31;52.22;;;29.20;;
51214;SDS011;63849;47.546;19.254;2023-02-15T01:39:57;51.42;;;28.80;;
51214;SDS011;63849;47.546;19.254;2023-02-15T01:42:25;48.22;;;29.77;;
51214;SDS011;63849;47.546;19.254;2023-02-15T01:44:54;46.75;;;27.08;;
51214;SDS011;63849;47.546;19.254;2023-02-15T01:47:39;51.08;;;29.67;;
51214;SDS011;63849;47.546;19.254;2023-02-15T01:52:40;41.67;;;26.02;;
51214;SDS011;63849;47.546;19.254;2023-02-15T01:55:30;47.95;;;27.15;;
51214;SDS011;63849;47.546;19.254;2023-02-15T01:58:00;46.30;;;26.52;;
51214;SDS011;63849;47.546;19.254;2023-02-15T02:00:27;43.50;;;26.35;;
51214;SDS011;63849;47.546;19.254;2023-02-15T02:02:54;42.45;;;25.48;;
51214;SDS011;63849;47.546;19.254;2023-02-15T02:05:22;38.88;;;25.02;;
51214;SDS011;63849;47.546;19.254;2023-02-15T02:07:48;42.10;;;25.52;;
51214;SDS011;63849;47.546;19.254;2023-02-15T02:10:19;52.97;;;26.83;;
51214;SDS011;63849;47.546;19.254;2023-02-15T02:12:48;44.42;;;26.25;;
51214;SDS011;63849;47.546;19.254;2023-02-15T02:15:16;43.55;;;27.10;;
51214;SDS011;63849;47.546;19.254;2023-02-15T02:20:25;43.63;;;24.58;;
51214;SDS011;63849;47.546;19.254;2023-02-15T02:34:39;43.90;;;26.70;;
51214;SDS011;63849;47.546;19.254;2023-02-15T02:37:34;43.65;;;25.35;;
51214;SDS011;63849;47.546;19.254;2023-02-15T02:43:35;41.70;;;25.88;;
51214;SDS011;63849;47.546;19.254;2023-02-15T02:46:31;42.10;;;25.85;;
51214;SDS011;63849;47.546;19.254;2023-02-15T02:49:04;42.17;;;25.65;;
51214;SDS011;63849;47.546;19.254;2023-02-15T02:51:30;42.40;;;26.23;;
51214;SDS011;63849;47.546;19.254;2023-02-15T02:53:56;42.97;;;26.67;;
51214;SDS011;63849;47.546;19.254;2023-02-15T02:56:29;43.05;;;25.63;;
51214;SDS011;63849;47.546;19.254;2023-02-15T03:01:39;39.30;;;22.95;;
51214;SDS011;63849;47.546;19.254;2023-02-15T03:04:15;44.03;;;24.25;;
51214;SDS011;63849;47.546;19.254;2023-02-15T03:07:05;41.05;;;24.60;;
51214;SDS011;63849;47.546;19.254;2023-02-15T03:09:38;42.33;;;24.67;;
51214;SDS011;63849;47.546;19.254;2023-02-15T03:14:34;41.25;;;23.33;;
51214;SDS011;63849;47.546;19.254;2023-02-15T03:17:01;38.75;;;23.45;;
51214;SDS011;63849;47.546;19.254;2023-02-15T03:19:32;39.70;;;23.90;;
51214;SDS011;63849;47.546;19.254;2023-02-15T03:22:03;38.58;;;24.33;;
51214;SDS011;63849;47.546;19.254;2023-02-15T03:24:40;36.25;;;23.35;;
51214;SDS011;63849;47.546;19.254;2023-02-15T03:27:18;40.63;;;23.63;;
51214;SDS011;63849;47.546;19.254;2023-02-15T03:29:48;40.28;;;23.75;;
51214;SDS011;63849;47.546;19.254;2023-02-15T03:32:17;39.00;;;24.17;;
51214;SDS011;63849;47.546;19.254;2023-02-15T03:34:43;41.35;;;23.77;;
51214;SDS011;63849;47.546;19.254;2023-02-15T03:40:11;38.15;;;23.10;;
51214;SDS011;63849;47.546;19.254;2023-02-15T03:45:54;38.40;;;22.42;;
51214;SDS011;63849;47.546;19.254;2023-02-15T03:48:27;39.70;;;24.00;;
51214;SDS011;63849;47.546;19.254;2023-02-15T03:51:12;38.67;;;23.20;;
51214;SDS011;63849;47.546;19.254;2023-02-15T03:54:12;44.08;;;26.15;;
51214;SDS011;63849;47.546;19.254;2023-02-15T03:56:59;49.03;;;28.73;;
51214;SDS011;63849;47.546;19.254;2023-02-15T03:59:45;45.15;;;26.05;;
51214;SDS011;63849;47.546;19.254;2023-02-15T04:02:31;43.10;;;24.73;;
51214;SDS011;63849;47.546;19.254;2023-02-15T04:05:03;41.97;;;24.33;;
51214;SDS011;63849;47.546;19.254;2023-02-15T04:07:29;44.67;;;26.70;;
51214;SDS011;63849;47.546;19.254;2023-02-15T04:09:55;42.80;;;24.63;;
51214;SDS011;63849;47.546;19.254;2023-02-15T04:12:39;39.45;;;23.73;;
51214;SDS011;63849;47.546;19.254;2023-02-15T04:15:05;45.13;;;24.83;;
51214;SDS011;63849;47.546;19.254;2023-02-15T04:17:50;41.63;;;25.17;;
51214;SDS011;63849;47.546;19.254;2023-02-15T04:20:16;44.85;;;25.88;;
51214;SDS011;63849;47.546;19.254;2023-02-15T04:23:00;43.97;;;25.40;;
51214;SDS011;63849;47.546;19.254;2023-02-15T04:25:44;45.17;;;25.17;;
51214;SDS011;63849;47.546;19.254;2023-02-15T04:28:10;42.95;;;25.75;;
51214;SDS011;63849;47.546;19.254;2023-02-15T04:30:35;38.55;;;23.85;;
51214;SDS011;63849;47.546;19.254;2023-02-15T04:33:01;40.70;;;25.23;;
51214;SDS011;63849;47.546;19.254;2023-02-15T04:35:27;44.10;;;24.75;;
51214;SDS011;63849;47.546;19.254;2023-02-15T04:37:53;41.35;;;24.80;;
51214;SDS011;63849;47.546;19.254;2023-02-15T04:40:18;47.50;;;26.02;;
51214;SDS011;63849;47.546;19.254;2023-02-15T04:42:45;42.08;;;25.77;;
51214;SDS011;63849;47.546;19.254;2023-02-15T04:45:13;46.20;;;26.00;;
51214;SDS011;63849;47.546;19.254;2023-02-15T04:47:38;41.90;;;26.55;;
51214;SDS011;63849;47.546;19.254;2023-02-15T04:50:04;44.35;;;24.50;;
51214;SDS011;63849;47.546;19.254;2023-02-15T04:52:30;41.17;;;25.88;;
51214;SDS011;63849;47.546;19.254;2023-02-15T04:54:56;43.85;;;25.33;;
51214;SDS011;63849;47.546;19.254;2023-02-15T04:57:22;45.28;;;26.48;;
51214;SDS011;63849;47.546;19.254;2023-02-15T04:59:48;44.85;;;26.42;;
51214;SDS011;63849;47.546;19.254;2023-02-15T05:02:13;46.67;;;26.98;;
51214;SDS011;63849;47.546;19.254;2023-02-15T05:04:39;44.17;;;25.90;;
51214;SDS011;63849;47.546;19.254;2023-02-15T05:07:05;48.35;;;27.13;;
51214;SDS011;63849;47.546;19.254;2023-02-15T05:09:30;46.00;;;26.85;;
51214;SDS011;63849;47.546;19.254;2023-02-15T05:11:56;45.88;;;27.05;;
51214;SDS011;63849;47.546;19.254;2023-02-15T05:14:22;49.58;;;27.35;;
51214;SDS011;63849;47.546;19.254;2023-02-15T05:16:48;48.20;;;27.70;;
51214;SDS011;63849;47.546;19.254;2023-02-15T05:19:13;46.33;;;28.05;;
51214;SDS011;63849;47.546;19.254;2023-02-15T05:21:39;47.70;;;27.23;;
51214;SDS011;63849;47.546;19.254;2023-02-15T05:24:05;46.58;;;26.92;;
51214;SDS011;63849;47.546;19.254;2023-02-15T05:26:51;48.83;;;27.42;;
51214;SDS011;63849;47.546;19.254;2023-02-15T05:29:35;49.90;;;26.90;;
51214;SDS011;63849;47.546;19.254;2023-02-15T05:32:00;48.97;;;28.45;;
51214;SDS011;63849;47.546;19.254;2023-02-15T05:34:27;47.85;;;28.48;;
51214;SDS011;63849;47.546;19.254;2023-02-15T05:36:53;50.53;;;28.92;;
51214;SDS011;63849;47.546;19.254;2023-02-15T05:39:18;49.88;;;29.52;;
51214;SDS011;63849;47.546;19.254;2023-02-15T05:41:44;57.83;;;31.38;;
51214;SDS011;63849;47.546;19.254;2023-02-15T05:44:10;62.25;;;34.90;;
51214;SDS011;63849;47.546;19.254;2023-02-15T05:46:36;68.95;;;36.63;;
51214;SDS011;63849;47.546;19.254;2023-02-15T05:49:01;79.20;;;40.08;;
51214;SDS011;63849;47.546;19.254;2023-02-15T05:51:27;80.05;;;42.97;;
51214;SDS011;63849;47.546;19.254;2023-02-15T05:53:53;74.45;;;41.42;;
51214;SDS011;63849;47.546;19.254;2023-02-15T05:56:19;70.47;;;39.70;;
51214;SDS011;63849;47.546;19.254;2023-02-15T05:58:45;69.85;;;38.10;;
51214;SDS011;63849;47.546;19.254;2023-02-15T06:01:14;73.82;;;39.92;;
51214;SDS011;63849;47.546;19.254;2023-02-15T06:03:42;69.18;;;37.53;;
51214;SDS011;63849;47.546;19.254;2023-02-15T06:06:09;68.55;;;37.83;;
51214;SDS011;63849;47.546;19.254;2023-02-15T06:08:37;78.05;;;39.85;;
51214;SDS011;63849;47.546;19.254;2023-02-15T06:11:03;68.95;;;37.35;;
51214;SDS011;63849;47.546;19.254;2023-02-15T06:13:30;71.40;;;38.97;;
51214;SDS011;63849;47.546;19.254;2023-02-15T06:15:56;71.38;;;38.63;;
51214;SDS011;63849;47.546;19.254;2023-02-15T06:18:22;64.90;;;37.83;;
51214;SDS011;63849;47.546;19.254;2023-02-15T06:20:52;63.70;;;37.53;;
51214;SDS011;63849;47.546;19.254;2023-02-15T06:23:18;67.18;;;37.22;;
51214;SDS011;63849;47.546;19.254;2023-02-15T06:25:44;61.55;;;34.78;;
51214;SDS011;63849;47.546;19.254;2023-02-15T06:28:14;64.05;;;36.70;;
51214;SDS011;63849;47.546;19.254;2023-02-15T06:30:40;62.08;;;37.90;;
51214;SDS011;63849;47.546;19.254;2023-02-15T06:33:06;72.38;;;38.67;;
51214;SDS011;63849;47.546;19.254;2023-02-15T06:35:31;68.90;;;39.17;;
51214;SDS011;63849;47.546;19.254;2023-02-15T06:37:57;66.78;;;39.67;;
51214;SDS011;63849;47.546;19.254;2023-02-15T06:40:23;72.97;;;39.65;;
51214;SDS011;63849;47.546;19.254;2023-02-15T06:42:49;76.93;;;42.83;;
51214;SDS011;63849;47.546;19.254;2023-02-15T06:45:15;70.15;;;41.55;;
51214;SDS011;63849;47.546;19.254;2023-02-15T06:47:40;69.93;;;42.00;;
51214;SDS011;63849;47.546;19.254;2023-02-15T06:50:06;70.90;;;41.25;;
51214;SDS011;63849;47.546;19.254;2023-02-15T06:52:33;70.95;;;42.40;;
51214;SDS011;63849;47.546;19.254;2023-02-15T06:54:59;70.18;;;42.50;;
51214;SDS011;63849;47.546;19.254;2023-02-15T06:57:24;76.20;;;43.88;;
51214;SDS011;63849;47.546;19.254;2023-02-15T06:59:50;76.03;;;44.42;;
51214;SDS011;63849;47.546;19.254;2023-02-15T07:02:17;79.93;;;45.65;;
51214;SDS011;63849;47.546;19.254;2023-02-15T07:04:43;80.72;;;47.88;;
51214;SDS011;63849;47.546;19.254;2023-02-15T07:07:10;82.18;;;48.33;;
51214;SDS011;63849;47.546;19.254;2023-02-15T07:09:37;74.32;;;41.40;;
51214;SDS011;63849;47.546;19.254;2023-02-15T07:12:03;77.13;;;41.60;;
51214;SDS011;63849;47.546;19.254;2023-02-15T07:14:48;67.93;;;38.53;;
51214;SDS011;63849;47.546;19.254;2023-02-15T07:17:14;71.20;;;39.15;;
51214;SDS011;63849;47.546;19.254;2023-02-15T07:19:40;63.53;;;39.47;;
51214;SDS011;63849;47.546;19.254;2023-02-15T07:22:08;64.45;;;37.60;;
51214;SDS011;63849;47.546;19.254;2023-02-15T07:24:34;67.47;;;37.85;;
51214;SDS011;63849;47.546;19.254;2023-02-15T07:27:00;63.45;;;35.63;;
51214;SDS011;63849;47.546;19.254;2023-02-15T07:29:25;60.08;;;35.72;;
51214;SDS011;63849;47.546;19.254;2023-02-15T07:31:51;59.22;;;35.13;;
51214;SDS011;63849;47.546;19.254;2023-02-15T07:34:17;64.75;;;36.38;;
51214;SDS011;63849;47.546;19.254;2023-02-15T07:36:43;61.20;;;35.92;;
51214;SDS011;63849;47.546;19.254;2023-02-15T07:39:09;62.78;;;35.03;;
51214;SDS011;63849;47.546;19.254;2023-02-15T07:41:35;60.53;;;36.33;;
51214;SDS011;63849;47.546;19.254;2023-02-15T07:44:01;60.22;;;34.13;;
51214;SDS011;63849;47.546;19.254;2023-02-15T07:46:27;54.85;;;33.08;;
51214;SDS011;63849;47.546;19.254;2023-02-15T07:48:53;57.10;;;34.72;;
51214;SDS011;63849;47.546;19.254;2023-02-15T07:51:19;59.35;;;35.17;;
51214;SDS011;63849;47.546;19.254;2023-02-15T07:53:45;59.38;;;34.42;;
51214;SDS011;63849;47.546;19.254;2023-02-15T07:56:12;53.42;;;33.08;;
51214;SDS011;63849;47.546;19.254;2023-02-15T07:58:39;54.63;;;33.42;;
51214;SDS011;63849;47.546;19.254;2023-02-15T08:01:17;60.85;;;35.63;;
51214;SDS011;63849;47.546;19.254;2023-02-15T08:03:45;55.53;;;32.92;;
51214;SDS011;63849;47.546;19.254;2023-02-15T08:06:11;55.85;;;31.50;;
51214;SDS011;63849;47.546;19.254;2023-02-15T08:08:38;53.10;;;33.08;;
51214;SDS011;63849;47.546;19.254;2023-02-15T08:11:05;53.35;;;32.15;;
51214;SDS011;63849;47.546;19.254;2023-02-15T08:13:54;53.70;;;32.95;;
51214;SDS011;63849;47.546;19.254;2023-02-15T08:16:24;56.17;;;32.78;;
51214;SDS011;63849;47.546;19.254;2023-02-15T08:18:52;56.20;;;32.55;;
51214;SDS011;63849;47.546;19.254;2023-02-15T08:21:19;56.53;;;31.70;;
51214;SDS011;63849;47.546;19.254;2023-02-15T08:23:46;53.55;;;31.48;;
51214;SDS011;63849;47.546;19.254;2023-02-15T08:26:12;59.05;;;32.72;;
51214;SDS011;63849;47.546;19.254;2023-02-15T08:28:38;53.60;;;31.67;;
51214;SDS011;63849;47.546;19.254;2023-02-15T08:31:07;55.60;;;32.65;;
51214;SDS011;63849;47.546;19.254;2023-02-15T08:33:34;52.90;;;32.47;;
51214;SDS011;63849;47.546;19.254;2023-02-15T08:36:02;50.65;;;30.52;;
51214;SDS011;63849;47.546;19.254;2023-02-15T08:38:32;52.47;;;30.75;;
51214;SDS011;63849;47.546;19.254;2023-02-15T08:41:08;43.58;;;28.35;;
51214;SDS011;63849;47.546;19.254;2023-02-15T08:43:40;42.67;;;28.40;;
51214;SDS011;63849;47.546;19.254;2023-02-15T08:46:08;46.17;;;29.00;;
51214;SDS011;63849;47.546;19.254;2023-02-15T08:48:35;43.25;;;27.60;;
51214;SDS011;63849;47.546;19.254;2023-02-15T08:51:05;47.70;;;28.33;;
51214;SDS011;63849;47.546;19.254;2023-02-15T08:53:36;42.58;;;25.27;;
51214;SDS011;63849;47.546;19.254;2023-02-15T08:56:06;40.83;;;25.60;;
51214;SDS011;63849;47.546;19.254;2023-02-15T08:58:33;40.10;;;26.08;;
51214;SDS011;63849;47.546;19.254;2023-02-15T09:00:59;48.50;;;27.67;;
51214;SDS011;63849;47.546;19.254;2023-02-15T09:03:27;41.20;;;25.90;;
51214;SDS011;63849;47.546;19.254;2023-02-15T09:05:58;41.03;;;25.70;;
51214;SDS011;63849;47.546;19.254;2023-02-15T09:08:25;42.05;;;26.75;;
51214;SDS011;63849;47.546;19.254;2023-02-15T09:10:51;43.13;;;26.38;;
51214;SDS011;63849;47.546;19.254;2023-02-15T09:13:17;42.20;;;25.40;;
51214;SDS011;63849;47.546;19.254;2023-02-15T09:15:43;42.28;;;26.17;;
51214;SDS011;63849;47.546;19.254;2023-02-15T09:18:09;38.88;;;25.58;;
51214;SDS011;63849;47.546;19.254;2023-02-15T09:20:37;39.92;;;25.95;;
51214;SDS011;63849;47.546;19.254;2023-02-15T09:23:02;39.28;;;25.30;;
51214;SDS011;63849;47.546;19.254;2023-02-15T09:25:28;41.10;;;25.67;;
51214;SDS011;63849;47.546;19.254;2023-02-15T09:27:54;42.88;;;25.92;;
51214;SDS011;63849;47.546;19.254;2023-02-15T09:30:20;43.83;;;27.83;;
51214;SDS011;63849;47.546;19.254;2023-02-15T09:32:46;42.67;;;27.25;;
51214;SDS011;63849;47.546;19.254;2023-02-15T09:35:12;40.25;;;26.55;;
51214;SDS011;63849;47.546;19.254;2023-02-15T09:37:38;46.53;;;28.63;;
51214;SDS011;63849;47.546;19.254;2023-02-15T09:40:04;43.65;;;28.95;;
51214;SDS011;63849;47.546;19.254;2023-02-15T09:42:41;49.00;;;29.17;;
51214;SDS011;63849;47.546;19.254;2023-02-15T09:45:31;44.75;;;28.30;;
51214;SDS011;63849;47.546;19.254;2023-02-15T09:53:32;41.65;;;27.90;;
51214;SDS011;63849;47.546;19.254;2023-02-15T10:05:21;41.17;;;26.35;;
51214;SDS011;63849;47.546;19.254;2023-02-15T10:08:15;43.80;;;26.83;;
51214;SDS011;63849;47.546;19.254;2023-02-15T10:10:59;44.65;;;27.60;;
51214;SDS011;63849;47.546;19.254;2023-02-15T10:16:33;46.13;;;28.17;;
51214;SDS011;63849;47.546;19.254;2023-02-15T10:19:13;47.90;;;30.08;;
51214;SDS011;63849;47.546;19.254;2023-02-15T10:27:13;49.20;;;29.63;;
51214;SDS011;63849;47.546;19.254;2023-02-15T10:32:59;42.35;;;27.85;;
51214;SDS011;63849;47.546;19.254;2023-02-15T10:35:47;42.72;;;28.15;;
51214;SDS011;63849;47.546;19.254;2023-02-15T10:38:48;44.88;;;28.23;;
51214;SDS011;63849;47.546;19.254;2023-02-15T10:50:06;45.50;;;29.65;;
51214;SDS011;63849;47.546;19.254;2023-02-15T10:58:41;38.83;;;26.70;;
51214;SDS011;63849;47.546;19.254;2023-02-15T11:07:03;41.42;;;25.63;;
51214;SDS011;63849;47.546;19.254;2023-02-15T11:09:40;40.70;;;26.17;;
51214;SDS011;63849;47.546;19.254;2023-02-15T11:12:14;43.22;;;27.67;;
51214;SDS011;63849;47.546;19.254;2023-02-15T11:14:49;38.80;;;26.88;;
51214;SDS011;63849;47.546;19.254;2023-02-15T11:17:38;42.72;;;27.88;;
51214;SDS011;63849;47.546;19.254;2023-02-15T11:22:53;37.40;;;25.40;;
51214;SDS011;63849;47.546;19.254;2023-02-15T11:25:28;35.80;;;25.42;;
51214;SDS011;63849;47.546;19.254;2023-02-15T11:27:58;34.90;;;25.30;;
51214;SDS011;63849;47.546;19.254;2023-02-15T11:30:32;37.08;;;24.95;;
51214;SDS011;63849;47.546;19.254;2023-02-15T11:33:12;37.45;;;26.75;;
51214;SDS011;63849;47.546;19.254;2023-02-15T11:38:24;47.45;;;29.52;;
51214;SDS011;63849;47.546;19.254;2023-02-15T11:40:55;45.40;;;29.42;;
51214;SDS011;63849;47.546;19.254;2023-02-15T11:43:41;41.70;;;28.02;;
51214;SDS011;63849;47.546;19.254;2023-02-15T11:46:26;41.90;;;28.00;;
51214;SDS011;63849;47.546;19.254;2023-02-15T11:48:52;41.88;;;28.13;;
51214;SDS011;63849;47.546;19.254;2023-02-15T11:51:19;41.22;;;28.55;;
51214;SDS011;63849;47.546;19.254;2023-02-15T11:53:47;41.83;;;28.58;;
51214;SDS011;63849;47.546;19.254;2023-02-15T11:56:17;43.08;;;30.38;;
51214;SDS011;63849;47.546;19.254;2023-02-15T11:58:49;44.70;;;30.30;;
51214;SDS011;63849;47.546;19.254;2023-02-15T12:01:37;50.30;;;31.00;;
51214;SDS011;63849;47.546;19.254;2023-02-15T12:04:09;50.95;;;31.38;;
51214;SDS011;63849;47.546;19.254;2023-02-15T12:06:49;47.60;;;31.58;;
51214;SDS011;63849;47.546;19.254;2023-02-15T12:09:44;47.17;;;30.88;;
51214;SDS011;63849;47.546;19.254;2023-02-15T12:12:19;44.10;;;31.02;;
51214;SDS011;63849;47.546;19.254;2023-02-15T12:14:47;42.97;;;30.58;;
51214;SDS011;63849;47.546;19.254;2023-02-15T12:17:18;44.25;;;31.08;;
51214;SDS011;63849;47.546;19.254;2023-02-15T12:19:47;45.38;;;31.23;;
51214;SDS011;63849;47.546;19.254;2023-02-15T12:22:20;46.92;;;32.40;;
51214;SDS011;63849;47.546;19.254;2023-02-15T12:24:54;42.03;;;29.63;;
51214;SDS011;63849;47.546;19.254;2023-02-15T12:27:23;42.22;;;29.73;;
51214;SDS011;63849;47.546;19.254;2023-02-15T12:30:01;42.08;;;28.38;;
51214;SDS011;63849;47.546;19.254;2023-02-15T12:35:33;43.30;;;29.00;;
51214;SDS011;63849;47.546;19.254;2023-02-15T12:40:36;44.03;;;29.77;;
51214;SDS011;63849;47.546;19.254;2023-02-15T12:43:03;46.60;;;30.73;;
51214;SDS011;63849;47.546;19.254;2023-02-15T12:45:37;42.40;;;29.30;;
51214;SDS011;63849;47.546;19.254;2023-02-15T12:50:39;44.80;;;30.27;;
51214;SDS011;63849;47.546;19.254;2023-02-15T12:53:06;46.67;;;31.95;;
51214;SDS011;63849;47.546;19.254;2023-02-15T12:55:32;42.40;;;29.98;;
51214;SDS011;63849;47.546;19.254;2023-02-15T13:00:31;44.45;;;30.25;;
51214;SDS011;63849;47.546;19.254;2023-02-15T13:02:58;43.85;;;30.73;;
51214;SDS011;63849;47.546;19.254;2023-02-15T13:08:12;41.40;;;28.88;;
51214;SDS011;63849;47.546;19.254;2023-02-15T13:13:22;39.17;;;28.20;;
51214;SDS011;63849;47.546;19.254;2023-02-15T13:15:52;39.35;;;26.55;;
51214;SDS011;63849;47.546;19.254;2023-02-15T13:18:32;37.08;;;25.70;;
51214;SDS011;63849;47.546;19.254;2023-02-15T13:23:37;41.97;;;26.92;;
51214;SDS011;63849;47.546;19.254;2023-02-15T13:26:04;37.35;;;26.20;;
51214;SDS011;63849;47.546;19.254;2023-02-15T13:28:46;40.28;;;27.02;;
51214;SDS011;63849;47.546;19.254;2023-02-15T13:31:19;41.90;;;27.55;;
51214;SDS011;63849;47.546;19.254;2023-02-15T13:33:49;45.90;;;31.70;;
51214;SDS011;63849;47.546;19.254;2023-02-15T13:36:21;42.35;;;29.00;;
51214;SDS011;63849;47.546;19.254;2023-02-15T13:38:58;44.83;;;30.02;;
51214;SDS011;63849;47.546;19.254;2023-02-15T13:41:46;43.35;;;27.52;;
51214;SDS011;63849;47.546;19.254;2023-02-15T13:47:13;46.45;;;30.70;;
51214;SDS011;63849;47.546;19.254;2023-02-15T13:50:07;44.20;;;29.20;;
51214;SDS011;63849;47.546;19.254;2023-02-15T13:55:51;45.10;;;29.90;;
51214;SDS011;63849;47.546;19.254;2023-02-15T14:14:49;40.88;;;28.08;;
51214;SDS011;63849;47.546;19.254;2023-02-15T14:17:53;42.75;;;27.15;;
51214;SDS011;63849;47.546;19.254;2023-02-15T14:26:03;47.95;;;32.63;;
51214;SDS011;63849;47.546;19.254;2023-02-15T14:28:58;50.50;;;34.40;;
51214;SDS011;63849;47.546;19.254;2023-02-15T14:31:33;53.90;;;35.60;;
51214;SDS011;63849;47.546;19.254;2023-02-15T14:34:08;56.03;;;35.97;;
51214;SDS011;63849;47.546;19.254;2023-02-15T14:36:50;56.97;;;36.13;;
51214;SDS011;63849;47.546;19.254;2023-02-15T14:39:26;52.80;;;35.50;;
51214;SDS011;63849;47.546;19.254;2023-02-15T14:42:15;53.58;;;30.77;;
51214;SDS011;63849;47.546;19.254;2023-02-15T14:44:52;48.83;;;31.38;;
51214;SDS011;63849;47.546;19.254;2023-02-15T14:47:28;46.22;;;28.83;;
51214;SDS011;63849;47.546;19.254;2023-02-15T14:49:59;42.92;;;29.02;;
51214;SDS011;63849;47.546;19.254;2023-02-15T15:01:29;50.45;;;32.75;;
51214;SDS011;63849;47.546;19.254;2023-02-15T15:04:00;51.47;;;34.20;;
51214;SDS011;63849;47.546;19.254;2023-02-15T15:06:30;59.55;;;38.33;;
51214;SDS011;63849;47.546;19.254;2023-02-15T15:09:09;57.17;;;37.92;;
51214;SDS011;63849;47.546;19.254;2023-02-15T15:11:51;58.92;;;37.40;;
51214;SDS011;63849;47.546;19.254;2023-02-15T15:17:02;56.45;;;37.72;;
51214;SDS011;63849;47.546;19.254;2023-02-15T15:22:21;59.38;;;36.55;;
51214;SDS011;63849;47.546;19.254;2023-02-15T15:24:58;54.10;;;34.72;;
51214;SDS011;63849;47.546;19.254;2023-02-15T15:27:44;58.47;;;36.83;;
51214;SDS011;63849;47.546;19.254;2023-02-15T15:32:38;56.83;;;37.38;;
51214;SDS011;63849;47.546;19.254;2023-02-15T15:40:41;59.08;;;36.55;;
51214;SDS011;63849;47.546;19.254;2023-02-15T15:48:36;54.95;;;36.38;;
51214;SDS011;63849;47.546;19.254;2023-02-15T15:51:27;61.40;;;37.45;;
51214;SDS011;63849;47.546;19.254;2023-02-15T15:53:55;56.47;;;34.10;;
51214;SDS011;63849;47.546;19.254;2023-02-15T15:56:26;54.88;;;33.72;;
51214;SDS011;63849;47.546;19.254;2023-02-15T15:59:02;54.40;;;34.05;;
51214;SDS011;63849;47.546;19.254;2023-02-15T16:01:40;54.60;;;33.75;;
51214;SDS011;63849;47.546;19.254;2023-02-15T16:04:23;53.55;;;34.80;;
51214;SDS011;63849;47.546;19.254;2023-02-15T16:06:55;56.78;;;34.75;;
51214;SDS011;63849;47.546;19.254;2023-02-15T16:09:22;55.15;;;33.80;;
51214;SDS011;63849;47.546;19.254;2023-02-15T16:11:51;64.53;;;37.47;;
51214;SDS011;63849;47.546;19.254;2023-02-15T16:16:57;59.30;;;36.63;;
51214;SDS011;63849;47.546;19.254;2023-02-15T16:19:30;60.50;;;37.50;;
51214;SDS011;63849;47.546;19.254;2023-02-15T16:24:31;65.95;;;40.55;;
51214;SDS011;63849;47.546;19.254;2023-02-15T16:27:11;67.88;;;40.35;;
51214;SDS011;63849;47.546;19.254;2023-02-15T16:29:41;64.68;;;39.25;;
51214;SDS011;63849;47.546;19.254;2023-02-15T16:32:23;58.45;;;36.53;;
51214;SDS011;63849;47.546;19.254;2023-02-15T16:34:51;65.05;;;38.55;;
51214;SDS011;63849;47.546;19.254;2023-02-15T16:37:21;62.47;;;37.22;;
51214;SDS011;63849;47.546;19.254;2023-02-15T16:39:51;57.30;;;36.25;;
51214;SDS011;63849;47.546;19.254;2023-02-15T16:42:17;60.58;;;38.35;;
51214;SDS011;63849;47.546;19.254;2023-02-15T16:44:47;63.53;;;38.50;;
51214;SDS011;63849;47.546;19.254;2023-02-15T16:47:36;61.53;;;38.53;;
51214;SDS011;63849;47.546;19.254;2023-02-15T16:50:07;67.97;;;41.38;;
51214;SDS011;63849;47.546;19.254;2023-02-15T16:52:49;143.57;;;69.97;;
51214;SDS011;63849;47.546;19.254;2023-02-15T16:55:26;161.10;;;82.63;;
51214;SDS011;63849;47.546;19.254;2023-02-15T16:57:57;149.60;;;80.85;;
51214;SDS011;63849;47.546;19.254;2023-02-15T17:00:31;135.05;;;74.15;;
51214;SDS011;63849;47.546;19.254;2023-02-15T17:03:00;107.30;;;62.58;;
51214;SDS011;63849;47.546;19.254;2023-02-15T17:05:42;95.25;;;55.17;;
51214;SDS011;63849;47.546;19.254;2023-02-15T17:08:15;94.43;;;56.42;;
51214;SDS011;63849;47.546;19.254;2023-02-15T17:11:04;90.97;;;55.47;;
51214;SDS011;63849;47.546;19.254;2023-02-15T17:13:37;127.85;;;70.75;;
51214;SDS011;63849;47.546;19.254;2023-02-15T17:18:33;177.90;;;92.43;;